createdAt,value
2019-02-18T00:01:28.289Z,55.60
2019-02-18T00:03:59.618Z,54.60
2019-02-18T00:06:31.087Z,56.45
2019-02-18T00:09:02.662Z,54.18
2019-02-18T00:11:35.005Z,59.83
2019-02-18T00:14:06.460Z,60.25
2019-02-18T00:16:37.839Z,39.10
2019-02-18T00:19:09.249Z,57.85
2019-02-18T00:21:40.523Z,57.05
2019-02-18T00:24:11.885Z,57.95
2019-02-18T00:26:43.191Z,58.00
2019-02-18T00:29:14.515Z,38.33
2019-02-18T00:31:45.899Z,50.12
2019-02-18T00:34:17.349Z,59.53
2019-02-18T00:36:48.722Z,51.70
2019-02-18T00:39:20.070Z,48.95
2019-02-18T00:41:51.490Z,43.10
2019-02-18T00:44:22.932Z,55.50
2019-02-18T00:46:54.391Z,57.55
2019-02-18T00:49:25.745Z,47.83
2019-02-18T00:51:57.088Z,47.27
2019-02-18T00:54:28.538Z,53.48
2019-02-18T00:56:59.869Z,53.85
2019-02-18T00:59:31.303Z,51.37
2019-02-18T01:02:02.666Z,40.92
2019-02-18T01:04:33.970Z,53.75
2019-02-18T01:07:05.489Z,46.48
2019-02-18T01:09:36.938Z,57.13
2019-02-18T01:12:08.256Z,59.63
2019-02-18T01:14:39.595Z,52.03
2019-02-18T01:17:10.866Z,49.83
2019-02-18T01:19:42.249Z,54.25
2019-02-18T01:22:13.488Z,60.05
2019-02-18T01:24:44.819Z,57.40
2019-02-18T01:27:16.121Z,55.33
2019-02-18T01:32:18.576Z,54.88
2019-02-18T01:34:49.907Z,52.40
2019-02-18T01:37:21.354Z,55.63
2019-02-18T01:39:52.807Z,60.58
2019-02-18T01:42:24.136Z,52.78
2019-02-18T01:44:55.618Z,59.58
2019-02-18T01:47:27.045Z,52.88
2019-02-18T01:49:58.503Z,47.10
2019-02-18T01:52:29.819Z,52.15
2019-02-18T01:55:01.194Z,46.23
2019-02-18T01:57:32.652Z,50.40
2019-02-18T02:00:05.198Z,56.13
2019-02-18T02:02:36.765Z,61.37
2019-02-18T02:05:08.619Z,62.33
2019-02-18T02:07:40.005Z,55.17
2019-02-18T02:10:13.684Z,51.65
2019-02-18T02:12:45.003Z,58.08
2019-02-18T02:15:19.533Z,54.60
2019-02-18T02:17:50.882Z,59.90
2019-02-18T02:20:22.347Z,50.20
2019-02-18T02:22:53.688Z,52.20
2019-02-18T02:25:25.077Z,57.05
2019-02-18T02:27:56.493Z,60.73
2019-02-18T02:30:28.029Z,48.92
2019-02-18T02:32:59.336Z,55.92
2019-02-18T02:35:30.744Z,57.20
2019-02-18T02:38:07.615Z,54.53
2019-02-18T02:40:35.209Z,47.95
2019-02-18T02:43:06.852Z,60.95
2019-02-18T02:45:38.295Z,49.70
2019-02-18T02:48:09.635Z,52.67
2019-02-18T02:50:40.956Z,52.73
2019-02-18T02:53:12.423Z,51.50
2019-02-18T02:55:43.879Z,56.10
2019-02-18T02:58:15.295Z,50.63
2019-02-18T03:00:46.689Z,52.95
2019-02-18T03:03:18.158Z,59.58
2019-02-18T03:05:49.513Z,52.48
2019-02-18T03:08:21.165Z,53.28
2019-02-18T03:10:52.725Z,49.93
2019-02-18T03:13:24.114Z,45.67
2019-02-18T03:15:55.610Z,49.10
2019-02-18T03:18:26.962Z,49.75
2019-02-18T03:20:58.333Z,50.35
2019-02-18T03:23:29.644Z,53.08
2019-02-18T03:26:00.988Z,39.13
2019-02-18T03:28:56.669Z,47.73
2019-02-18T03:31:28.555Z,52.48
2019-02-18T03:34:02.972Z,54.85
2019-02-18T03:36:34.436Z,50.78
2019-02-18T03:39:06.674Z,54.53
2019-02-18T03:41:40.915Z,50.12
2019-02-18T03:44:11.298Z,49.10
2019-02-18T03:46:42.687Z,49.88
2019-02-18T03:49:14.019Z,44.95
2019-02-18T03:51:45.570Z,43.05
2019-02-18T03:54:17.078Z,49.58
2019-02-18T03:56:48.475Z,48.17
2019-02-18T03:59:20.791Z,47.65
2019-02-18T04:01:52.205Z,53.23
2019-02-18T04:04:23.596Z,46.50
2019-02-18T04:06:54.995Z,45.50
2019-02-18T04:09:26.452Z,36.80
2019-02-18T04:11:57.920Z,43.00
2019-02-18T04:14:29.314Z,40.28
2019-02-18T04:17:00.786Z,51.45
2019-02-18T04:19:32.268Z,48.80
2019-02-18T04:22:03.974Z,42.73
2019-02-18T04:24:35.356Z,41.48
2019-02-18T04:27:06.987Z,48.75
2019-02-18T04:29:38.463Z,44.50
2019-02-18T04:32:09.802Z,53.60
2019-02-18T04:34:41.277Z,47.00
2019-02-18T04:37:12.624Z,53.17
2019-02-18T04:39:43.941Z,27.82
2019-02-18T04:42:15.309Z,47.58
2019-02-18T04:44:46.747Z,49.13
2019-02-18T04:47:18.181Z,38.25
2019-02-18T04:49:49.673Z,35.28
2019-02-18T04:52:21.107Z,51.95
2019-02-18T04:54:52.560Z,42.75
2019-02-18T04:57:24.399Z,49.63
2019-02-18T04:59:55.751Z,48.30
2019-02-18T05:02:27.144Z,57.65
2019-02-18T05:04:58.577Z,39.18
2019-02-18T05:07:30.008Z,46.02
2019-02-18T05:10:01.359Z,37.25
2019-02-18T05:12:32.813Z,51.95
2019-02-18T05:15:05.559Z,41.80
2019-02-18T05:17:36.919Z,48.10
2019-02-18T05:20:08.948Z,49.60
2019-02-18T05:25:12.886Z,50.30
2019-02-18T05:27:44.068Z,66.42
2019-02-18T05:30:15.521Z,55.95
2019-02-18T05:32:48.188Z,56.10
2019-02-18T05:35:19.547Z,49.38
2019-02-18T05:37:50.997Z,48.85
2019-02-18T05:40:22.468Z,65.20
2019-02-18T05:42:53.783Z,66.92
2019-02-18T05:45:25.272Z,41.77
2019-02-18T05:47:56.570Z,64.58
2019-02-18T05:50:28.012Z,53.92
2019-02-18T05:52:59.469Z,64.30
2019-02-18T05:55:31.191Z,67.78
2019-02-18T05:58:03.228Z,50.60
2019-02-18T06:00:34.560Z,54.10
2019-02-18T06:03:05.999Z,45.45
2019-02-18T06:05:37.472Z,47.78
2019-02-18T06:08:08.852Z,53.63
2019-02-18T06:56:13.105Z,26.97
2019-02-18T06:58:46.130Z,25.10
2019-02-18T07:01:22.103Z,26.75
2019-02-18T07:04:13.403Z,27.20
2019-02-18T07:06:46.322Z,16.93
2019-02-18T07:09:31.454Z,18.02
2019-02-18T07:12:04.457Z,24.07
2019-02-18T07:14:35.979Z,24.98
2019-02-18T07:17:07.424Z,25.92
2019-02-18T07:19:38.873Z,25.90
2019-02-18T07:22:10.195Z,40.70
2019-02-18T07:24:41.532Z,33.38
2019-02-18T07:27:12.865Z,34.80
2019-02-18T07:29:44.177Z,27.50
2019-02-18T07:32:15.523Z,22.17
2019-02-18T07:34:46.776Z,30.80
2019-02-18T07:37:18.203Z,28.55
2019-02-18T07:39:49.659Z,20.72
2019-02-18T07:42:21.946Z,22.45
2019-02-18T07:44:53.114Z,20.95
2019-02-18T07:47:24.507Z,36.88
2019-02-18T07:49:55.971Z,35.83
2019-02-18T07:52:27.327Z,25.10
2019-02-18T07:54:58.668Z,14.63
2019-02-18T07:57:29.922Z,18.27
2019-02-18T08:00:01.282Z,12.73
2019-02-18T08:02:32.531Z,21.48
2019-02-18T08:05:04.040Z,15.10
2019-02-18T08:07:35.227Z,32.70
2019-02-18T08:10:12.506Z,12.20
2019-02-18T08:12:44.037Z,19.40
2019-02-18T08:15:15.405Z,16.87
2019-02-18T08:17:46.620Z,16.77
2019-02-18T08:20:17.837Z,12.37
2019-02-18T08:22:50.118Z,21.42
2019-02-18T08:25:21.524Z,14.65
2019-02-18T08:27:52.903Z,11.10
2019-02-18T08:30:24.158Z,12.33
2019-02-18T08:32:55.474Z,17.50
2019-02-18T08:35:26.767Z,17.70
2019-02-18T08:37:58.129Z,12.23
2019-02-18T08:40:29.484Z,20.70
2019-02-18T08:43:00.698Z,13.32
2019-02-18T08:45:31.948Z,12.35
2019-02-18T08:48:03.219Z,8.90
2019-02-18T08:50:34.546Z,11.63
2019-02-18T08:53:06.008Z,22.50
2019-02-18T08:55:37.252Z,9.05
2019-02-18T08:58:08.501Z,10.53
2019-02-18T09:00:39.737Z,13.22
2019-02-18T09:03:10.979Z,19.90
2019-02-18T09:05:43.660Z,34.30
2019-02-18T09:08:15.044Z,13.85
2019-02-18T09:10:46.352Z,13.05
2019-02-18T09:13:17.590Z,11.12
2019-02-18T09:15:59.450Z,25.43
2019-02-18T09:18:22.147Z,12.73
2019-02-18T09:20:53.379Z,13.05
2019-02-18T09:23:26.238Z,18.02
2019-02-18T09:25:57.532Z,12.70
2019-02-18T09:28:28.911Z,12.95
2019-02-18T09:31:00.410Z,13.95
2019-02-18T09:33:32.069Z,12.35
2019-02-18T09:36:03.258Z,18.07
2019-02-18T09:38:34.457Z,11.50
2019-02-18T09:41:05.808Z,10.55
2019-02-18T09:43:37.264Z,15.05
2019-02-18T09:46:08.485Z,13.53
2019-02-18T09:48:39.728Z,10.23
2019-02-18T09:51:11.002Z,14.25
2019-02-18T09:53:42.283Z,12.45
2019-02-18T09:56:13.482Z,13.75
2019-02-18T09:58:44.840Z,14.68
2019-02-18T10:01:16.059Z,13.80
2019-02-18T10:03:47.330Z,10.65
2019-02-18T10:06:18.523Z,12.07
2019-02-18T10:08:49.781Z,14.58
2019-02-18T10:11:21.070Z,8.33
2019-02-18T10:13:52.392Z,10.88
2019-02-18T10:16:23.855Z,17.20
2019-02-18T10:18:55.200Z,11.80
2019-02-18T10:21:26.552Z,3.50
2019-02-18T10:23:57.839Z,11.75
2019-02-18T10:26:29.095Z,9.60
2019-02-18T10:29:00.410Z,10.48
2019-02-18T10:31:31.631Z,5.45
2019-02-18T10:34:03.209Z,8.45
2019-02-18T10:36:34.411Z,14.18
2019-02-18T10:39:06.576Z,9.85
2019-02-18T10:41:37.788Z,6.35
2019-02-18T10:44:09.090Z,13.65
2019-02-18T10:46:40.753Z,9.60
2019-02-18T10:49:19.860Z,10.82
2019-02-18T10:51:45.703Z,10.18
2019-02-18T10:54:17.004Z,7.85
2019-02-18T10:56:48.228Z,16.15
2019-02-18T10:59:19.565Z,6.97
2019-02-18T11:01:50.885Z,7.65
2019-02-18T11:04:22.080Z,7.45
2019-02-18T11:06:53.548Z,6.53
2019-02-18T11:09:24.928Z,10.78
2019-02-18T11:11:56.270Z,17.73
2019-02-18T11:14:27.524Z,14.60
2019-02-18T11:16:58.880Z,21.50
2019-02-18T11:19:30.224Z,18.15
2019-02-18T11:22:01.569Z,18.00
2019-02-18T11:24:32.935Z,16.97
2019-02-18T11:27:04.187Z,16.37
2019-02-18T11:29:35.507Z,12.80
2019-02-18T11:32:06.922Z,10.05
2019-02-18T11:34:38.157Z,11.18
2019-02-18T11:37:09.967Z,14.70
2019-02-18T11:39:41.335Z,15.88
2019-02-18T11:42:12.637Z,9.58
2019-02-18T11:44:44.019Z,11.83
2019-02-18T11:47:15.380Z,9.68
2019-02-18T11:49:47.143Z,11.65
2019-02-18T11:52:18.447Z,22.60
2019-02-18T11:54:49.711Z,14.98
2019-02-18T11:57:21.053Z,24.63
2019-02-18T11:59:52.310Z,12.85
2019-02-18T12:02:24.083Z,9.25
2019-02-18T12:04:55.295Z,8.75
2019-02-18T12:07:26.567Z,11.10
2019-02-18T12:09:57.822Z,22.07
2019-02-18T12:12:29.039Z,16.70
2019-02-18T12:15:00.778Z,11.43
2019-02-18T12:17:32.134Z,17.87
2019-02-18T12:20:04.179Z,16.10
2019-02-18T12:22:36.382Z,12.90
2019-02-18T12:25:07.719Z,20.02
2019-02-18T12:27:39.272Z,13.38
2019-02-18T12:30:13.027Z,8.23
2019-02-18T12:32:44.410Z,14.80
2019-02-18T12:35:15.552Z,22.50
2019-02-18T12:37:55.018Z,23.57
2019-02-18T12:40:19.822Z,18.10
2019-02-18T12:42:51.152Z,14.83
2019-02-18T12:45:22.503Z,15.40
2019-02-18T12:47:53.834Z,14.05
2019-02-18T12:50:25.186Z,7.58
2019-02-18T12:52:57.081Z,12.65
2019-02-18T12:55:28.598Z,10.40
2019-02-18T13:00:30.692Z,6.90
2019-02-18T13:03:02.039Z,9.73
2019-02-18T13:05:33.298Z,8.63
2019-02-18T13:08:04.919Z,15.78
2019-02-18T13:10:36.149Z,17.35
2019-02-18T13:13:07.425Z,22.45
2019-02-18T13:15:38.624Z,16.23
2019-02-18T13:18:10.017Z,21.52
2019-02-18T13:20:41.270Z,10.13
2019-02-18T13:23:13.009Z,20.20
2019-02-18T13:25:47.536Z,21.35
2019-02-18T13:28:17.154Z,8.83
2019-02-18T13:30:48.484Z,7.37
2019-02-18T13:33:19.741Z,11.75
2019-02-18T13:35:51.414Z,12.33
2019-02-18T13:38:22.726Z,5.25
2019-02-18T13:40:54.289Z,12.55
2019-02-18T13:43:26.040Z,5.92
2019-02-18T13:45:57.286Z,11.05
2019-02-18T13:48:28.640Z,24.70
2019-02-18T13:51:00.262Z,16.27
2019-02-18T13:53:31.501Z,10.90
2019-02-18T13:56:02.818Z,37.45
2019-02-18T13:58:34.271Z,32.23
2019-02-18T14:01:05.732Z,38.92
2019-02-18T14:03:37.247Z,45.40
2019-02-18T14:06:08.710Z,29.55
2019-02-18T14:08:40.023Z,25.00
2019-02-18T14:11:11.357Z,17.00
2019-02-18T14:13:42.838Z,14.05
2019-02-18T14:16:14.185Z,16.17
2019-02-18T14:18:45.358Z,12.75
2019-02-18T14:21:16.694Z,10.43
2019-02-18T14:23:47.915Z,8.70
2019-02-18T14:26:19.134Z,18.25
2019-02-18T14:28:50.524Z,16.57
2019-02-18T14:31:21.898Z,13.08
2019-02-18T14:33:53.218Z,16.15
2019-02-18T14:36:24.493Z,8.38
2019-02-18T14:38:55.809Z,6.30
2019-02-18T14:41:27.259Z,20.57
2019-02-18T14:43:58.608Z,18.80
2019-02-18T14:46:29.832Z,21.27
2019-02-18T14:49:01.048Z,19.55
2019-02-18T14:51:32.558Z,9.33
2019-02-18T14:54:04.099Z,10.30
2019-02-18T14:56:35.311Z,16.50
2019-02-18T14:59:06.673Z,18.87
2019-02-18T15:01:37.940Z,11.25
2019-02-18T15:04:09.730Z,8.90
2019-02-18T15:06:41.045Z,11.83
2019-02-18T15:09:12.304Z,13.22
2019-02-18T15:11:43.558Z,17.98
2019-02-18T15:14:14.773Z,17.42
2019-02-18T15:16:46.128Z,12.75
2019-02-18T15:19:17.868Z,15.10
2019-02-18T15:21:49.257Z,22.73
2019-02-18T15:24:20.585Z,14.58
2019-02-18T15:26:51.799Z,27.42
2019-02-18T15:29:23.016Z,30.25
2019-02-18T15:34:25.424Z,15.08
2019-02-18T15:36:56.693Z,10.72
2019-02-18T15:39:28.055Z,14.28
2019-02-18T15:41:59.272Z,17.23
2019-02-18T15:44:31.139Z,19.65
2019-02-18T15:47:02.499Z,20.88
2019-02-18T15:49:33.760Z,18.52
2019-02-18T15:52:05.231Z,11.95
2019-02-18T15:54:36.444Z,13.65
2019-02-18T15:57:08.009Z,14.93
2019-02-18T15:59:39.352Z,19.25
2019-02-18T16:02:10.644Z,12.70
2019-02-18T16:04:41.942Z,23.25
2019-02-18T16:07:13.277Z,16.20
2019-02-18T16:09:44.763Z,14.07
2019-02-18T16:12:17.494Z,23.20
2019-02-18T16:14:48.882Z,19.70
2019-02-18T16:17:20.099Z,19.82
2019-02-18T16:19:51.512Z,27.65
2019-02-18T16:22:23.316Z,25.90
2019-02-18T16:24:54.695Z,27.02
2019-02-18T16:27:26.032Z,30.70
2019-02-18T16:29:57.340Z,29.77
2019-02-18T16:32:28.818Z,22.87
2019-02-18T16:35:00.285Z,27.07
2019-02-18T16:37:31.997Z,21.57
2019-02-18T16:40:03.553Z,20.65
2019-02-18T16:42:34.867Z,16.35
2019-02-18T16:45:09.857Z,18.87
2019-02-18T16:47:41.203Z,36.53
2019-02-18T16:50:12.572Z,17.92
2019-02-18T16:52:44.000Z,20.45
2019-02-18T16:55:16.234Z,18.32
2019-02-18T16:57:48.107Z,18.52
2019-02-18T17:03:03.539Z,28.32
2019-02-18T17:05:35.081Z,19.48
2019-02-18T17:08:06.632Z,21.60
2019-02-18T17:10:38.090Z,22.37
2019-02-18T17:13:10.647Z,39.35
2019-02-18T17:15:42.085Z,29.35
2019-02-18T17:18:13.432Z,34.40
2019-02-18T17:20:44.784Z,32.30
2019-02-18T17:23:16.545Z,21.35
2019-02-18T17:25:48.044Z,23.50
2019-02-18T17:28:19.641Z,14.43
2019-02-18T17:30:51.094Z,22.48
2019-02-18T17:33:22.438Z,12.55
2019-02-18T17:35:54.124Z,18.45
2019-02-18T17:38:26.592Z,16.82
2019-02-18T17:40:58.033Z,22.27
2019-02-18T17:43:29.493Z,34.48
2019-02-18T17:46:00.840Z,34.58
2019-02-18T17:48:32.493Z,32.67
2019-02-18T17:51:03.878Z,33.50
2019-02-18T17:53:35.211Z,26.97
2019-02-18T17:56:06.576Z,49.03
2019-02-18T17:58:37.901Z,33.53
2019-02-18T18:01:09.803Z,47.70
2019-02-18T18:03:41.173Z,38.75
2019-02-18T18:06:12.649Z,37.73
2019-02-18T18:08:44.097Z,34.25
2019-02-18T18:11:15.536Z,25.85
2019-02-18T18:13:47.410Z,36.05
2019-02-18T18:16:19.066Z,31.10
2019-02-18T18:18:50.543Z,25.92
2019-02-18T18:21:22.123Z,28.25
2019-02-18T18:23:53.660Z,29.60
2019-02-18T18:26:25.496Z,41.50
2019-02-18T18:28:56.807Z,35.90
2019-02-18T18:31:28.276Z,36.42
2019-02-18T18:33:59.729Z,38.25
2019-02-18T18:36:31.268Z,60.85
2019-02-18T18:41:34.914Z,80.10
2019-02-18T18:44:06.242Z,88.50
2019-02-18T18:46:37.697Z,85.47
2019-02-18T18:49:09.067Z,76.60
2019-02-18T18:51:40.967Z,69.55
2019-02-18T18:54:12.595Z,64.67
2019-02-18T18:56:43.994Z,51.23
2019-02-18T18:59:15.380Z,26.62
2019-02-18T19:01:46.688Z,27.65
2019-02-18T19:04:18.159Z,30.37
2019-02-18T19:06:49.463Z,32.90
2019-02-18T19:09:20.972Z,21.82
2019-02-18T19:11:52.427Z,12.88
2019-02-18T19:14:23.879Z,22.22
2019-02-18T19:16:55.212Z,12.68
2019-02-18T19:19:26.652Z,15.75
2019-02-18T19:21:57.998Z,24.18
2019-02-18T19:24:29.663Z,17.62
2019-02-18T19:27:01.188Z,23.75
2019-02-18T19:29:32.657Z,28.80
2019-02-18T19:32:04.098Z,20.20
2019-02-18T19:34:35.584Z,21.93
2019-02-18T19:39:38.212Z,25.85
2019-02-18T19:42:09.706Z,35.88
2019-02-18T19:44:42.626Z,51.77
2019-02-18T19:47:17.102Z,50.78
2019-02-18T19:49:48.566Z,40.30
2019-02-18T19:52:20.299Z,32.03
2019-02-18T19:54:51.629Z,33.35
2019-02-18T19:57:23.012Z,41.95
2019-02-18T19:59:54.465Z,25.90
2019-02-18T20:02:25.779Z,22.80
2019-02-18T20:04:57.695Z,26.82
2019-02-18T20:07:29.122Z,22.60
2019-02-18T20:10:00.509Z,23.07
2019-02-18T20:12:31.899Z,24.75
2019-02-18T20:15:03.364Z,23.07
2019-02-18T20:17:34.823Z,23.85
2019-02-18T20:20:11.984Z,19.37
2019-02-18T20:22:43.463Z,22.80
2019-02-18T20:25:14.965Z,20.37
2019-02-18T20:30:18.150Z,53.20
2019-02-18T20:32:49.488Z,20.48
2019-02-18T20:35:20.817Z,21.68
2019-02-18T20:37:52.303Z,18.98
2019-02-18T20:40:24.009Z,16.12
2019-02-18T20:42:55.470Z,13.35
2019-02-18T20:45:27.029Z,17.23
2019-02-18T20:47:58.398Z,13.70
2019-02-18T20:50:30.776Z,20.10
2019-02-18T20:53:02.458Z,11.40
2019-02-18T20:55:33.859Z,14.95
2019-02-18T20:58:05.173Z,19.40
2019-02-18T21:00:36.531Z,18.27
2019-02-18T21:03:07.847Z,18.52
2019-02-18T21:05:39.354Z,21.97
2019-02-18T21:08:10.882Z,18.48
2019-02-18T21:10:42.321Z,18.60
2019-02-18T21:13:13.657Z,14.00
2019-02-18T21:15:45.144Z,19.75
2019-02-18T21:20:47.543Z,16.60
2019-02-18T21:23:19.016Z,18.73
2019-02-18T21:25:50.469Z,13.35
2019-02-18T21:28:21.894Z,20.90
2019-02-18T21:30:53.588Z,13.48
2019-02-18T21:33:25.006Z,18.25
2019-02-18T21:35:56.415Z,13.70
2019-02-18T21:38:27.910Z,17.40
2019-02-18T21:40:59.240Z,15.83
2019-02-18T21:43:30.978Z,18.20
2019-02-18T21:46:02.422Z,22.98
2019-02-18T21:48:33.808Z,17.85
2019-02-18T21:51:05.226Z,23.30
2019-02-18T21:53:36.685Z,24.23
2019-02-18T21:56:09.776Z,23.18
2019-02-18T21:58:41.113Z,16.20
2019-02-18T22:01:12.556Z,20.80
2019-02-18T22:03:44.061Z,23.20
2019-02-18T22:06:15.461Z,23.25
2019-02-18T22:08:46.995Z,18.82
2019-02-18T22:11:18.459Z,26.10
2019-02-18T22:13:49.858Z,16.77
2019-02-18T22:16:21.299Z,19.27
2019-02-18T22:18:52.764Z,25.25
2019-02-18T22:21:24.555Z,18.02
2019-02-18T22:23:55.891Z,16.75
2019-02-18T22:26:27.494Z,23.02
2019-02-18T22:28:58.945Z,30.20
2019-02-18T22:31:30.392Z,28.05
2019-02-18T22:34:01.844Z,35.20
2019-02-18T22:36:33.244Z,37.83
2019-02-18T22:39:04.863Z,42.78
2019-02-18T22:41:36.741Z,46.50
2019-02-18T22:44:08.136Z,36.73
2019-02-18T22:46:39.461Z,43.78
2019-02-18T22:49:10.990Z,46.05
2019-02-18T22:51:42.320Z,29.30
2019-02-18T22:54:13.754Z,40.98
2019-02-18T22:56:45.080Z,30.95
2019-02-18T22:59:16.506Z,28.67
2019-02-18T23:01:48.304Z,34.35
2019-02-18T23:04:19.715Z,23.30
2019-02-18T23:06:51.293Z,32.28
2019-02-18T23:09:22.666Z,24.10
2019-02-18T23:11:54.069Z,32.60
2019-02-18T23:14:25.554Z,32.03
2019-02-18T23:16:56.999Z,40.70
2019-02-18T23:19:28.405Z,34.27
2019-02-18T23:21:59.818Z,39.70
2019-02-18T23:24:31.141Z,41.00
2019-02-18T23:27:03.898Z,39.67
2019-02-18T23:29:35.482Z,42.60
2019-02-18T23:32:06.757Z,35.70
2019-02-18T23:34:38.171Z,35.48
2019-02-18T23:37:09.633Z,37.85
2019-02-18T23:39:41.171Z,37.38
2019-02-18T23:42:12.835Z,32.42
2019-02-18T23:44:44.289Z,29.18
2019-02-18T23:47:15.738Z,34.35
2019-02-18T23:49:47.187Z,43.00
2019-02-18T23:52:18.524Z,33.78
2019-02-18T23:54:50.204Z,31.27
2019-02-18T23:57:21.474Z,36.30
2019-02-18T23:59:52.811Z,34.40
